sensor_id;sensor_type;location;lat;lon;timestamp;temperature;humidity
19132;DHT22;9698;51.976;7.570;2023-06-19T00:00:22;24.90;99.90
19132;DHT22;9698;51.976;7.570;2023-06-19T00:02:50;24.90;99.90
19132;DHT22;9698;51.976;7.570;2023-06-19T00:05:18;24.90;99.90
19132;DHT22;9698;51.976;7.570;2023-06-19T00:07:46;24.90;99.90
19132;DHT22;9698;51.976;7.570;2023-06-19T00:10:14;24.90;99.90
19132;DHT22;9698;51.976;7.570;2023-06-19T00:15:31;24.80;99.90
19132;DHT22;9698;51.976;7.570;2023-06-19T00:18:00;24.80;99.90
19132;DHT22;9698;51.976;7.570;2023-06-19T00:20:28;24.80;99.90
19132;DHT22;9698;51.976;7.570;2023-06-19T00:22:56;24.80;99.90
19132;DHT22;9698;51.976;7.570;2023-06-19T00:25:24;24.80;99.90
19132;DHT22;9698;51.976;7.570;2023-06-19T00:27:52;24.80;99.90
19132;DHT22;9698;51.976;7.570;2023-06-19T00:30:20;24.80;99.90
19132;DHT22;9698;51.976;7.570;2023-06-19T00:32:48;24.80;99.90
19132;DHT22;9698;51.976;7.570;2023-06-19T00:35:17;24.80;99.90
19132;DHT22;9698;51.976;7.570;2023-06-19T00:37:45;24.80;99.90
19132;DHT22;9698;51.976;7.570;2023-06-19T00:40:26;24.80;99.90
19132;DHT22;9698;51.976;7.570;2023-06-19T00:42:54;24.70;99.90
19132;DHT22;9698;51.976;7.570;2023-06-19T00:45:23;24.70;99.90
19132;DHT22;9698;51.976;7.570;2023-06-19T00:47:52;24.70;99.90
19132;DHT22;9698;51.976;7.570;2023-06-19T00:50:20;24.70;99.90
19132;DHT22;9698;51.976;7.570;2023-06-19T00:52:49;24.70;99.90
19132;DHT22;9698;51.976;7.570;2023-06-19T00:55:18;24.70;99.90
19132;DHT22;9698;51.976;7.570;2023-06-19T00:57:46;24.70;99.90
19132;DHT22;9698;51.976;7.570;2023-06-19T01:00:15;24.60;99.90
19132;DHT22;9698;51.976;7.570;2023-06-19T01:02:43;24.60;99.90
19132;DHT22;9698;51.976;7.570;2023-06-19T01:05:11;23.50;99.90
19132;DHT22;9698;51.976;7.570;2023-06-19T01:07:45;24.60;99.90
19132;DHT22;9698;51.976;7.570;2023-06-19T01:10:16;24.50;99.90
19132;DHT22;9698;51.976;7.570;2023-06-19T01:12:52;24.50;99.90
19132;DHT22;9698;51.976;7.570;2023-06-19T01:15:23;24.50;99.90
19132;DHT22;9698;51.976;7.570;2023-06-19T01:17:51;24.50;99.90
19132;DHT22;9698;51.976;7.570;2023-06-19T01:20:20;24.50;99.90
19132;DHT22;9698;51.976;7.570;2023-06-19T01:22:48;24.50;99.90
19132;DHT22;9698;51.976;7.570;2023-06-19T01:25:16;24.40;99.90
19132;DHT22;9698;51.976;7.570;2023-06-19T01:27:44;24.50;99.90
19132;DHT22;9698;51.976;7.570;2023-06-19T01:30:12;24.40;99.90
19132;DHT22;9698;51.976;7.570;2023-06-19T01:32:50;24.40;99.90
19132;DHT22;9698;51.976;7.570;2023-06-19T01:35:26;24.40;99.90
19132;DHT22;9698;51.976;7.570;2023-06-19T01:37:55;24.40;99.90
19132;DHT22;9698;51.976;7.570;2023-06-19T01:40:24;24.40;99.90
19132;DHT22;9698;51.976;7.570;2023-06-19T01:42:54;24.40;99.90
19132;DHT22;9698;51.976;7.570;2023-06-19T01:45:22;24.30;99.90
19132;DHT22;9698;51.976;7.570;2023-06-19T01:47:50;24.30;99.90
19132;DHT22;9698;51.976;7.570;2023-06-19T01:50:18;24.30;99.90
19132;DHT22;9698;51.976;7.570;2023-06-19T01:52:46;24.30;99.90
19132;DHT22;9698;51.976;7.570;2023-06-19T01:55:14;24.30;99.90
19132;DHT22;9698;51.976;7.570;2023-06-19T01:57:42;24.30;1.00
19132;DHT22;9698;51.976;7.570;2023-06-19T02:00:11;24.30;99.90
19132;DHT22;9698;51.976;7.570;2023-06-19T02:02:39;24.20;1.00
19132;DHT22;9698;51.976;7.570;2023-06-19T02:05:08;24.20;1.00
19132;DHT22;9698;51.976;7.570;2023-06-19T02:07:36;24.30;1.00
19132;DHT22;9698;51.976;7.570;2023-06-19T02:10:05;24.20;1.00
19132;DHT22;9698;51.976;7.570;2023-06-19T02:12:33;24.30;1.00
19132;DHT22;9698;51.976;7.570;2023-06-19T02:15:01;24.20;1.00
19132;DHT22;9698;51.976;7.570;2023-06-19T02:17:28;24.20;1.00
19132;DHT22;9698;51.976;7.570;2023-06-19T02:19:56;24.20;1.00
19132;DHT22;9698;51.976;7.570;2023-06-19T02:22:24;24.20;1.00
19132;DHT22;9698;51.976;7.570;2023-06-19T02:24:52;24.20;1.00
19132;DHT22;9698;51.976;7.570;2023-06-19T02:27:19;24.20;1.00
19132;DHT22;9698;51.976;7.570;2023-06-19T02:29:47;24.20;1.00
19132;DHT22;9698;51.976;7.570;2023-06-19T02:32:15;24.10;1.00
19132;DHT22;9698;51.976;7.570;2023-06-19T02:34:43;24.10;1.00
19132;DHT22;9698;51.976;7.570;2023-06-19T02:37:10;24.10;1.00
19132;DHT22;9698;51.976;7.570;2023-06-19T02:39:38;24.10;1.00
19132;DHT22;9698;51.976;7.570;2023-06-19T02:42:08;24.10;1.00
19132;DHT22;9698;51.976;7.570;2023-06-19T02:44:36;24.00;1.00
19132;DHT22;9698;51.976;7.570;2023-06-19T02:49:50;24.00;1.00
19132;DHT22;9698;51.976;7.570;2023-06-19T02:52:19;24.00;1.00
19132;DHT22;9698;51.976;7.570;2023-06-19T02:54:47;23.90;1.00
19132;DHT22;9698;51.976;7.570;2023-06-19T02:57:14;23.90;1.00
19132;DHT22;9698;51.976;7.570;2023-06-19T02:59:42;23.90;1.00
19132;DHT22;9698;51.976;7.570;2023-06-19T03:02:10;23.80;1.00
19132;DHT22;9698;51.976;7.570;2023-06-19T03:04:38;23.90;1.00
19132;DHT22;9698;51.976;7.570;2023-06-19T03:07:06;23.90;1.00
19132;DHT22;9698;51.976;7.570;2023-06-19T03:09:34;23.90;1.00
19132;DHT22;9698;51.976;7.570;2023-06-19T03:12:02;23.90;1.00
19132;DHT22;9698;51.976;7.570;2023-06-19T03:14:30;23.90;1.00
19132;DHT22;9698;51.976;7.570;2023-06-19T03:16:58;23.90;1.00
19132;DHT22;9698;51.976;7.570;2023-06-19T03:19:26;23.90;1.00
19132;DHT22;9698;51.976;7.570;2023-06-19T03:21:54;23.90;1.00
19132;DHT22;9698;51.976;7.570;2023-06-19T03:27:08;23.80;1.00
19132;DHT22;9698;51.976;7.570;2023-06-19T03:29:36;23.80;1.00
19132;DHT22;9698;51.976;7.570;2023-06-19T03:32:06;23.80;1.00
19132;DHT22;9698;51.976;7.570;2023-06-19T03:37:21;23.80;1.00
19132;DHT22;9698;51.976;7.570;2023-06-19T03:39:49;23.80;1.00
19132;DHT22;9698;51.976;7.570;2023-06-19T03:42:17;23.80;1.00
19132;DHT22;9698;51.976;7.570;2023-06-19T03:44:45;23.70;1.00
19132;DHT22;9698;51.976;7.570;2023-06-19T03:47:13;23.70;1.00
19132;DHT22;9698;51.976;7.570;2023-06-19T03:49:40;23.70;1.00
19132;DHT22;9698;51.976;7.570;2023-06-19T03:52:09;23.70;1.00
19132;DHT22;9698;51.976;7.570;2023-06-19T03:54:37;23.70;1.00
19132;DHT22;9698;51.976;7.570;2023-06-19T03:57:06;23.70;1.00
19132;DHT22;9698;51.976;7.570;2023-06-19T03:59:35;23.60;1.00
19132;DHT22;9698;51.976;7.570;2023-06-19T04:02:04;23.60;1.00
19132;DHT22;9698;51.976;7.570;2023-06-19T04:04:32;23.60;1.00
19132;DHT22;9698;51.976;7.570;2023-06-19T04:07:00;23.50;1.00
19132;DHT22;9698;51.976;7.570;2023-06-19T04:09:28;23.50;1.00
19132;DHT22;9698;51.976;7.570;2023-06-19T04:11:56;23.40;1.00
19132;DHT22;9698;51.976;7.570;2023-06-19T04:14:24;23.40;1.00
19132;DHT22;9698;51.976;7.570;2023-06-19T04:16:52;23.40;1.00
19132;DHT22;9698;51.976;7.570;2023-06-19T04:19:19;23.40;1.00
19132;DHT22;9698;51.976;7.570;2023-06-19T04:21:47;23.40;1.00
19132;DHT22;9698;51.976;7.570;2023-06-19T04:24:15;23.40;1.00
19132;DHT22;9698;51.976;7.570;2023-06-19T04:26:43;23.50;1.00
19132;DHT22;9698;51.976;7.570;2023-06-19T04:29:11;23.40;1.00
19132;DHT22;9698;51.976;7.570;2023-06-19T04:31:44;23.50;1.00
19132;DHT22;9698;51.976;7.570;2023-06-19T04:36:43;23.50;1.00
19132;DHT22;9698;51.976;7.570;2023-06-19T04:39:11;23.40;1.00
19132;DHT22;9698;51.976;7.570;2023-06-19T04:41:39;23.50;1.00
19132;DHT22;9698;51.976;7.570;2023-06-19T04:44:08;23.40;1.00
19132;DHT22;9698;51.976;7.570;2023-06-19T04:46:36;23.40;1.00
19132;DHT22;9698;51.976;7.570;2023-06-19T04:49:04;23.50;1.00
19132;DHT22;9698;51.976;7.570;2023-06-19T04:51:32;23.50;1.00
19132;DHT22;9698;51.976;7.570;2023-06-19T04:54:00;23.50;1.00
19132;DHT22;9698;51.976;7.570;2023-06-19T04:56:29;26.90;1.00
19132;DHT22;9698;51.976;7.570;2023-06-19T04:58:57;23.50;1.00
19132;DHT22;9698;51.976;7.570;2023-06-19T05:01:27;23.40;1.00
19132;DHT22;9698;51.976;7.570;2023-06-19T05:03:56;23.40;1.00
19132;DHT22;9698;51.976;7.570;2023-06-19T05:06:24;23.40;1.00
19132;DHT22;9698;51.976;7.570;2023-06-19T05:08:52;23.50;1.00
19132;DHT22;9698;51.976;7.570;2023-06-19T05:11:20;23.40;1.00
19132;DHT22;9698;51.976;7.570;2023-06-19T05:13:48;23.40;1.00
19132;DHT22;9698;51.976;7.570;2023-06-19T05:16:16;23.40;1.00
19132;DHT22;9698;51.976;7.570;2023-06-19T05:18:46;23.40;1.00
19132;DHT22;9698;51.976;7.570;2023-06-19T05:21:14;23.40;1.00
19132;DHT22;9698;51.976;7.570;2023-06-19T05:23:42;23.40;1.00
19132;DHT22;9698;51.976;7.570;2023-06-19T05:26:10;23.40;1.00
19132;DHT22;9698;51.976;7.570;2023-06-19T05:28:38;23.40;1.00
19132;DHT22;9698;51.976;7.570;2023-06-19T05:31:06;23.40;1.00
19132;DHT22;9698;51.976;7.570;2023-06-19T05:33:34;23.40;1.00
19132;DHT22;9698;51.976;7.570;2023-06-19T05:36:02;23.30;1.00
19132;DHT22;9698;51.976;7.570;2023-06-19T05:38:30;23.30;1.00
19132;DHT22;9698;51.976;7.570;2023-06-19T05:40:59;23.30;1.00
19132;DHT22;9698;51.976;7.570;2023-06-19T05:43:27;23.30;1.00
19132;DHT22;9698;51.976;7.570;2023-06-19T05:45:55;23.30;1.00
19132;DHT22;9698;51.976;7.570;2023-06-19T05:48:25;23.30;1.00
19132;DHT22;9698;51.976;7.570;2023-06-19T05:50:52;23.30;1.00
19132;DHT22;9698;51.976;7.570;2023-06-19T05:53:20;23.30;1.00
19132;DHT22;9698;51.976;7.570;2023-06-19T05:55:48;23.40;1.00
19132;DHT22;9698;51.976;7.570;2023-06-19T05:58:16;23.30;1.00
19132;DHT22;9698;51.976;7.570;2023-06-19T06:00:47;23.30;10.30
19132;DHT22;9698;51.976;7.570;2023-06-19T06:03:15;23.30;22.30
19132;DHT22;9698;51.976;7.570;2023-06-19T06:05:43;23.30;19.10
19132;DHT22;9698;51.976;7.570;2023-06-19T06:08:11;23.20;24.50
19132;DHT22;9698;51.976;7.570;2023-06-19T06:10:39;23.20;37.90
19132;DHT22;9698;51.976;7.570;2023-06-19T06:13:07;23.20;39.00
19132;DHT22;9698;51.976;7.570;2023-06-19T06:15:35;23.30;35.60
19132;DHT22;9698;51.976;7.570;2023-06-19T06:18:03;23.30;40.00
19132;DHT22;9698;51.976;7.570;2023-06-19T06:20:31;23.30;42.00
19132;DHT22;9698;51.976;7.570;2023-06-19T06:22:59;23.30;28.80
19132;DHT22;9698;51.976;7.570;2023-06-19T06:25:27;23.30;31.50
19132;DHT22;9698;51.976;7.570;2023-06-19T06:27:55;23.30;41.70
19132;DHT22;9698;51.976;7.570;2023-06-19T06:30:23;23.30;47.70
19132;DHT22;9698;51.976;7.570;2023-06-19T06:32:51;23.30;46.60
19132;DHT22;9698;51.976;7.570;2023-06-19T06:35:19;23.30;45.90
19132;DHT22;9698;51.976;7.570;2023-06-19T06:37:47;23.30;48.40
19132;DHT22;9698;51.976;7.570;2023-06-19T06:40:17;23.30;70.30
19132;DHT22;9698;51.976;7.570;2023-06-19T06:42:45;23.30;45.20
19132;DHT22;9698;51.976;7.570;2023-06-19T06:45:14;23.30;55.50
19132;DHT22;9698;51.976;7.570;2023-06-19T06:47:42;23.40;39.80
19132;DHT22;9698;51.976;7.570;2023-06-19T06:50:11;23.30;57.30
19132;DHT22;9698;51.976;7.570;2023-06-19T06:52:39;23.30;64.40
19132;DHT22;9698;51.976;7.570;2023-06-19T06:55:08;23.30;66.80
19132;DHT22;9698;51.976;7.570;2023-06-19T06:57:37;23.30;75.10
19132;DHT22;9698;51.976;7.570;2023-06-19T07:00:07;23.30;74.80
19132;DHT22;9698;51.976;7.570;2023-06-19T07:02:39;23.30;42.70
19132;DHT22;9698;51.976;7.570;2023-06-19T07:05:09;23.20;49.90
19132;DHT22;9698;51.976;7.570;2023-06-19T07:07:37;23.20;56.90
19132;DHT22;9698;51.976;7.570;2023-06-19T07:10:08;23.20;77.90
19132;DHT22;9698;51.976;7.570;2023-06-19T07:12:36;23.20;78.10
19132;DHT22;9698;51.976;7.570;2023-06-19T07:15:11;23.20;81.80
19132;DHT22;9698;51.976;7.570;2023-06-19T07:17:39;23.20;90.00
19132;DHT22;9698;51.976;7.570;2023-06-19T07:20:09;23.30;92.90
19132;DHT22;9698;51.976;7.570;2023-06-19T07:22:38;23.30;95.10
19132;DHT22;9698;51.976;7.570;2023-06-19T07:25:09;23.40;99.90
19132;DHT22;9698;51.976;7.570;2023-06-19T07:27:38;23.50;90.40
19132;DHT22;9698;51.976;7.570;2023-06-19T07:30:08;23.60;52.10
19132;DHT22;9698;51.976;7.570;2023-06-19T07:32:36;23.60;46.90
19132;DHT22;9698;51.976;7.570;2023-06-19T07:35:06;23.60;52.70
19132;DHT22;9698;51.976;7.570;2023-06-19T07:37:34;23.60;71.30
19132;DHT22;9698;51.976;7.570;2023-06-19T07:40:04;23.60;79.70
19132;DHT22;9698;51.976;7.570;2023-06-19T07:42:32;23.60;47.00
19132;DHT22;9698;51.976;7.570;2023-06-19T07:45:00;23.60;25.40
19132;DHT22;9698;51.976;7.570;2023-06-19T07:47:28;23.60;23.50
19132;DHT22;9698;51.976;7.570;2023-06-19T07:49:56;23.50;33.70
19132;DHT22;9698;51.976;7.570;2023-06-19T07:52:24;23.60;38.90
19132;DHT22;9698;51.976;7.570;2023-06-19T07:54:53;23.60;60.20
19132;DHT22;9698;51.976;7.570;2023-06-19T07:57:21;23.70;53.70
19132;DHT22;9698;51.976;7.570;2023-06-19T07:59:50;23.70;74.10
19132;DHT22;9698;51.976;7.570;2023-06-19T08:02:19;23.70;57.20
19132;DHT22;9698;51.976;7.570;2023-06-19T08:04:47;23.70;47.30
19132;DHT22;9698;51.976;7.570;2023-06-19T08:07:15;23.70;45.20
19132;DHT22;9698;51.976;7.570;2023-06-19T08:09:43;23.70;47.20
19132;DHT22;9698;51.976;7.570;2023-06-19T08:12:11;23.80;30.60
19132;DHT22;9698;51.976;7.570;2023-06-19T08:14:39;23.70;34.20
19132;DHT22;9698;51.976;7.570;2023-06-19T08:17:07;23.70;59.30
19132;DHT22;9698;51.976;7.570;2023-06-19T08:19:35;23.70;45.50
19132;DHT22;9698;51.976;7.570;2023-06-19T08:22:04;23.60;26.30
19132;DHT22;9698;51.976;7.570;2023-06-19T08:24:32;23.60;50.30
19132;DHT22;9698;51.976;7.570;2023-06-19T08:27:00;23.70;48.50
19132;DHT22;9698;51.976;7.570;2023-06-19T08:29:28;23.70;37.00
19132;DHT22;9698;51.976;7.570;2023-06-19T08:31:56;23.70;55.30
19132;DHT22;9698;51.976;7.570;2023-06-19T08:34:24;23.70;22.00
19132;DHT22;9698;51.976;7.570;2023-06-19T08:36:52;23.80;11.40
19132;DHT22;9698;51.976;7.570;2023-06-19T08:39:20;23.80;1.40
19132;DHT22;9698;51.976;7.570;2023-06-19T08:41:49;23.80;1.00
19132;DHT22;9698;51.976;7.570;2023-06-19T08:44:17;23.70;1.40
19132;DHT22;9698;51.976;7.570;2023-06-19T08:46:45;23.70;6.70
19132;DHT22;9698;51.976;7.570;2023-06-19T08:49:14;23.70;3.50
19132;DHT22;9698;51.976;7.570;2023-06-19T08:51:42;23.80;3.10
19132;DHT22;9698;51.976;7.570;2023-06-19T08:54:10;23.80;1.00
19132;DHT22;9698;51.976;7.570;2023-06-19T08:56:38;23.80;1.00
19132;DHT22;9698;51.976;7.570;2023-06-19T08:59:11;23.70;1.00
19132;DHT22;9698;51.976;7.570;2023-06-19T09:01:40;23.70;1.00
19132;DHT22;9698;51.976;7.570;2023-06-19T09:04:13;23.70;4.80
19132;DHT22;9698;51.976;7.570;2023-06-19T09:06:48;23.90;1.00
19132;DHT22;9698;51.976;7.570;2023-06-19T09:09:16;23.90;1.00
19132;DHT22;9698;51.976;7.570;2023-06-19T09:11:57;23.90;1.00
19132;DHT22;9698;51.976;7.570;2023-06-19T09:14:32;23.90;1.00
19132;DHT22;9698;51.976;7.570;2023-06-19T09:17:01;23.90;1.00
19132;DHT22;9698;51.976;7.570;2023-06-19T09:19:29;23.80;1.00
19132;DHT22;9698;51.976;7.570;2023-06-19T09:22:01;23.80;9.50
19132;DHT22;9698;51.976;7.570;2023-06-19T09:24:39;23.90;1.00
19132;DHT22;9698;51.976;7.570;2023-06-19T09:27:08;24.00;1.00
19132;DHT22;9698;51.976;7.570;2023-06-19T09:29:39;24.00;1.00
19132;DHT22;9698;51.976;7.570;2023-06-19T09:32:17;24.00;1.00
19132;DHT22;9698;51.976;7.570;2023-06-19T09:34:45;24.10;1.00
19132;DHT22;9698;51.976;7.570;2023-06-19T09:37:14;24.10;1.00
19132;DHT22;9698;51.976;7.570;2023-06-19T09:39:42;24.10;1.00
19132;DHT22;9698;51.976;7.570;2023-06-19T09:42:12;24.10;1.00
19132;DHT22;9698;51.976;7.570;2023-06-19T09:44:42;24.00;1.00
19132;DHT22;9698;51.976;7.570;2023-06-19T09:47:17;24.00;1.00
19132;DHT22;9698;51.976;7.570;2023-06-19T09:49:53;24.00;1.00
19132;DHT22;9698;51.976;7.570;2023-06-19T09:52:21;24.00;1.00
19132;DHT22;9698;51.976;7.570;2023-06-19T09:54:51;24.00;1.00
19132;DHT22;9698;51.976;7.570;2023-06-19T09:57:19;24.00;1.00
19132;DHT22;9698;51.976;7.570;2023-06-19T09:59:49;24.00;1.00
19132;DHT22;9698;51.976;7.570;2023-06-19T10:02:20;24.00;1.00
19132;DHT22;9698;51.976;7.570;2023-06-19T10:04:51;24.10;1.00
19132;DHT22;9698;51.976;7.570;2023-06-19T10:07:21;24.10;1.00
19132;DHT22;9698;51.976;7.570;2023-06-19T10:09:59;24.10;1.00
19132;DHT22;9698;51.976;7.570;2023-06-19T10:12:39;24.20;1.00
19132;DHT22;9698;51.976;7.570;2023-06-19T10:15:16;24.20;1.00
19132;DHT22;9698;51.976;7.570;2023-06-19T10:17:48;24.30;1.00
19132;DHT22;9698;51.976;7.570;2023-06-19T10:20:22;24.30;1.00
19132;DHT22;9698;51.976;7.570;2023-06-19T10:22:57;24.30;1.00
19132;DHT22;9698;51.976;7.570;2023-06-19T10:25:29;24.50;1.00
19132;DHT22;9698;51.976;7.570;2023-06-19T10:27:58;24.50;1.00
19132;DHT22;9698;51.976;7.570;2023-06-19T10:30:27;24.60;1.00
19132;DHT22;9698;51.976;7.570;2023-06-19T10:32:56;24.60;1.00
19132;DHT22;9698;51.976;7.570;2023-06-19T10:35:25;24.60;1.00
19132;DHT22;9698;51.976;7.570;2023-06-19T10:37:53;24.50;1.00
19132;DHT22;9698;51.976;7.570;2023-06-19T10:40:20;24.50;1.00
19132;DHT22;9698;51.976;7.570;2023-06-19T10:42:49;24.70;1.00
19132;DHT22;9698;51.976;7.570;2023-06-19T10:45:17;24.70;1.00
19132;DHT22;9698;51.976;7.570;2023-06-19T10:47:45;24.70;1.00
19132;DHT22;9698;51.976;7.570;2023-06-19T10:50:14;24.70;1.00
19132;DHT22;9698;51.976;7.570;2023-06-19T10:52:43;24.60;1.00
19132;DHT22;9698;51.976;7.570;2023-06-19T10:55:13;24.60;1.00
19132;DHT22;9698;51.976;7.570;2023-06-19T10:57:44;24.60;1.00
19132;DHT22;9698;51.976;7.570;2023-06-19T11:00:24;24.60;1.00
19132;DHT22;9698;51.976;7.570;2023-06-19T11:02:53;24.70;1.00
19132;DHT22;9698;51.976;7.570;2023-06-19T11:05:22;24.80;1.00
19132;DHT22;9698;51.976;7.570;2023-06-19T11:07:54;24.90;1.00
19132;DHT22;9698;51.976;7.570;2023-06-19T11:10:23;25.00;1.00
19132;DHT22;9698;51.976;7.570;2023-06-19T11:12:54;25.00;1.00
19132;DHT22;9698;51.976;7.570;2023-06-19T11:15:29;25.10;1.00
19132;DHT22;9698;51.976;7.570;2023-06-19T11:17:58;25.10;1.00
19132;DHT22;9698;51.976;7.570;2023-06-19T11:20:26;24.60;1.00
19132;DHT22;9698;51.976;7.570;2023-06-19T11:22:57;25.00;1.00
19132;DHT22;9698;51.976;7.570;2023-06-19T11:25:35;25.10;1.00
19132;DHT22;9698;51.976;7.570;2023-06-19T11:28:04;25.10;1.00
19132;DHT22;9698;51.976;7.570;2023-06-19T11:30:32;25.10;1.00
19132;DHT22;9698;51.976;7.570;2023-06-19T11:33:01;25.10;1.00
19132;DHT22;9698;51.976;7.570;2023-06-19T11:35:34;25.20;1.00
19132;DHT22;9698;51.976;7.570;2023-06-19T11:38:03;25.30;1.00
19132;DHT22;9698;51.976;7.570;2023-06-19T11:40:40;25.20;1.00
19132;DHT22;9698;51.976;7.570;2023-06-19T11:43:07;25.20;1.00
19132;DHT22;9698;51.976;7.570;2023-06-19T11:45:47;25.20;1.00
19132;DHT22;9698;51.976;7.570;2023-06-19T11:48:22;25.20;1.00
19132;DHT22;9698;51.976;7.570;2023-06-19T11:50:50;25.20;1.00
19132;DHT22;9698;51.976;7.570;2023-06-19T11:53:19;25.10;1.00
19132;DHT22;9698;51.976;7.570;2023-06-19T11:55:47;25.20;1.00
19132;DHT22;9698;51.976;7.570;2023-06-19T11:58:15;25.10;1.00
19132;DHT22;9698;51.976;7.570;2023-06-19T12:00:43;25.20;1.00
19132;DHT22;9698;51.976;7.570;2023-06-19T12:03:11;25.30;1.00
19132;DHT22;9698;51.976;7.570;2023-06-19T12:05:39;25.40;1.00
19132;DHT22;9698;51.976;7.570;2023-06-19T12:08:07;25.50;1.00
19132;DHT22;9698;51.976;7.570;2023-06-19T12:10:35;25.50;1.00
19132;DHT22;9698;51.976;7.570;2023-06-19T12:13:03;25.60;1.00
19132;DHT22;9698;51.976;7.570;2023-06-19T12:15:31;25.70;1.00
19132;DHT22;9698;51.976;7.570;2023-06-19T12:17:59;25.70;1.00
19132;DHT22;9698;51.976;7.570;2023-06-19T12:20:27;25.70;1.00
19132;DHT22;9698;51.976;7.570;2023-06-19T12:22:55;25.80;1.00
19132;DHT22;9698;51.976;7.570;2023-06-19T12:25:23;25.80;1.00
19132;DHT22;9698;51.976;7.570;2023-06-19T12:27:51;25.80;1.00
19132;DHT22;9698;51.976;7.570;2023-06-19T12:30:22;25.90;1.00
19132;DHT22;9698;51.976;7.570;2023-06-19T12:32:52;25.80;1.00
19132;DHT22;9698;51.976;7.570;2023-06-19T12:35:20;25.80;1.00
19132;DHT22;9698;51.976;7.570;2023-06-19T12:37:50;25.80;1.00
19132;DHT22;9698;51.976;7.570;2023-06-19T12:40:18;25.70;1.00
19132;DHT22;9698;51.976;7.570;2023-06-19T12:42:46;25.70;1.00
19132;DHT22;9698;51.976;7.570;2023-06-19T12:45:14;25.70;1.00
19132;DHT22;9698;51.976;7.570;2023-06-19T12:47:42;25.70;1.00
19132;DHT22;9698;51.976;7.570;2023-06-19T12:50:11;25.70;1.00
19132;DHT22;9698;51.976;7.570;2023-06-19T12:52:39;25.70;99.90
19132;DHT22;9698;51.976;7.570;2023-06-19T12:55:08;25.70;99.90
19132;DHT22;9698;51.976;7.570;2023-06-19T12:57:36;25.70;1.00
19132;DHT22;9698;51.976;7.570;2023-06-19T13:00:06;25.70;1.00
19132;DHT22;9698;51.976;7.570;2023-06-19T13:02:35;25.70;1.00
19132;DHT22;9698;51.976;7.570;2023-06-19T13:05:05;25.70;1.00
19132;DHT22;9698;51.976;7.570;2023-06-19T13:07:33;25.70;1.00
19132;DHT22;9698;51.976;7.570;2023-06-19T13:10:01;25.70;1.00
19132;DHT22;9698;51.976;7.570;2023-06-19T13:12:28;25.80;1.00
19132;DHT22;9698;51.976;7.570;2023-06-19T13:14:56;25.80;1.00
19132;DHT22;9698;51.976;7.570;2023-06-19T13:17:25;25.80;1.00
19132;DHT22;9698;51.976;7.570;2023-06-19T13:19:53;25.80;1.00
19132;DHT22;9698;51.976;7.570;2023-06-19T13:22:21;25.90;1.00
19132;DHT22;9698;51.976;7.570;2023-06-19T13:24:52;25.90;99.90
19132;DHT22;9698;51.976;7.570;2023-06-19T13:27:20;25.90;1.00
19132;DHT22;9698;51.976;7.570;2023-06-19T13:29:48;25.90;99.90
19132;DHT22;9698;51.976;7.570;2023-06-19T13:32:16;26.00;99.90
19132;DHT22;9698;51.976;7.570;2023-06-19T13:34:44;25.90;1.00
19132;DHT22;9698;51.976;7.570;2023-06-19T13:37:12;26.00;99.90
19132;DHT22;9698;51.976;7.570;2023-06-19T13:39:40;26.00;99.90
19132;DHT22;9698;51.976;7.570;2023-06-19T13:42:08;26.10;99.90
19132;DHT22;9698;51.976;7.570;2023-06-19T13:44:36;26.30;99.90
19132;DHT22;9698;51.976;7.570;2023-06-19T13:47:06;26.30;99.90
19132;DHT22;9698;51.976;7.570;2023-06-19T13:49:35;26.50;99.90
19132;DHT22;9698;51.976;7.570;2023-06-19T13:52:04;27.70;99.90
19132;DHT22;9698;51.976;7.570;2023-06-19T13:54:32;26.80;99.90
19132;DHT22;9698;51.976;7.570;2023-06-19T13:57:01;26.90;99.90
19132;DHT22;9698;51.976;7.570;2023-06-19T13:59:29;27.00;99.90
19132;DHT22;9698;51.976;7.570;2023-06-19T14:01:57;27.00;99.90
19132;DHT22;9698;51.976;7.570;2023-06-19T14:04:25;27.10;99.90
19132;DHT22;9698;51.976;7.570;2023-06-19T14:06:53;27.10;99.90
19132;DHT22;9698;51.976;7.570;2023-06-19T14:09:22;27.10;99.90
19132;DHT22;9698;51.976;7.570;2023-06-19T14:11:51;27.10;99.90
19132;DHT22;9698;51.976;7.570;2023-06-19T14:14:19;27.10;99.90
19132;DHT22;9698;51.976;7.570;2023-06-19T14:16:47;27.30;99.90
19132;DHT22;9698;51.976;7.570;2023-06-19T14:19:16;27.20;99.90
19132;DHT22;9698;51.976;7.570;2023-06-19T14:21:44;27.30;99.90
19132;DHT22;9698;51.976;7.570;2023-06-19T14:24:11;27.40;99.90
19132;DHT22;9698;51.976;7.570;2023-06-19T14:26:39;27.30;99.90
19132;DHT22;9698;51.976;7.570;2023-06-19T14:29:07;27.20;99.90
19132;DHT22;9698;51.976;7.570;2023-06-19T14:31:35;27.00;99.90
19132;DHT22;9698;51.976;7.570;2023-06-19T14:34:03;26.90;99.90
19132;DHT22;9698;51.976;7.570;2023-06-19T14:36:31;26.90;99.90
19132;DHT22;9698;51.976;7.570;2023-06-19T14:38:59;26.90;99.90
19132;DHT22;9698;51.976;7.570;2023-06-19T14:41:27;27.30;99.90
19132;DHT22;9698;51.976;7.570;2023-06-19T14:43:55;27.30;99.90
19132;DHT22;9698;51.976;7.570;2023-06-19T14:46:23;27.30;74.60
19132;DHT22;9698;51.976;7.570;2023-06-19T14:49:06;27.40;38.90
19132;DHT22;9698;51.976;7.570;2023-06-19T14:51:35;27.50;1.00
19132;DHT22;9698;51.976;7.570;2023-06-19T14:54:03;27.50;61.00
19132;DHT22;9698;51.976;7.570;2023-06-19T14:56:31;27.40;19.70
19132;DHT22;9698;51.976;7.570;2023-06-19T14:58:59;27.30;44.70
19132;DHT22;9698;51.976;7.570;2023-06-19T15:01:26;27.30;84.60
19132;DHT22;9698;51.976;7.570;2023-06-19T15:03:55;27.40;68.60
19132;DHT22;9698;51.976;7.570;2023-06-19T15:06:23;27.50;86.70
19132;DHT22;9698;51.976;7.570;2023-06-19T15:08:51;27.70;37.80
19132;DHT22;9698;51.976;7.570;2023-06-19T15:11:19;27.90;1.00
19132;DHT22;9698;51.976;7.570;2023-06-19T15:13:47;28.00;1.00
19132;DHT22;9698;51.976;7.570;2023-06-19T15:16:14;28.10;1.00
19132;DHT22;9698;51.976;7.570;2023-06-19T15:18:43;28.20;1.00
19132;DHT22;9698;51.976;7.570;2023-06-19T15:21:11;28.30;1.00
19132;DHT22;9698;51.976;7.570;2023-06-19T15:23:39;28.50;1.00
19132;DHT22;9698;51.976;7.570;2023-06-19T15:26:07;28.60;1.00
19132;DHT22;9698;51.976;7.570;2023-06-19T15:28:35;28.70;1.00
19132;DHT22;9698;51.976;7.570;2023-06-19T15:31:04;28.90;1.00
19132;DHT22;9698;51.976;7.570;2023-06-19T15:33:32;28.80;1.00
19132;DHT22;9698;51.976;7.570;2023-06-19T15:36:00;28.80;1.00
19132;DHT22;9698;51.976;7.570;2023-06-19T15:38:28;28.80;1.00
19132;DHT22;9698;51.976;7.570;2023-06-19T15:40:57;28.70;1.00
19132;DHT22;9698;51.976;7.570;2023-06-19T15:43:25;28.70;1.00
19132;DHT22;9698;51.976;7.570;2023-06-19T15:45:56;28.60;1.00
19132;DHT22;9698;51.976;7.570;2023-06-19T15:48:24;29.30;1.00
19132;DHT22;9698;51.976;7.570;2023-06-19T15:50:52;28.70;1.00
19132;DHT22;9698;51.976;7.570;2023-06-19T15:53:20;28.70;1.00
19132;DHT22;9698;51.976;7.570;2023-06-19T15:55:48;28.60;1.00
19132;DHT22;9698;51.976;7.570;2023-06-19T15:58:16;28.50;1.00
19132;DHT22;9698;51.976;7.570;2023-06-19T16:00:44;28.60;1.00
19132;DHT22;9698;51.976;7.570;2023-06-19T16:03:12;28.40;1.00
19132;DHT22;9698;51.976;7.570;2023-06-19T16:05:40;28.40;1.00
19132;DHT22;9698;51.976;7.570;2023-06-19T16:08:15;28.30;1.00
19132;DHT22;9698;51.976;7.570;2023-06-19T16:10:43;28.40;1.00
19132;DHT22;9698;51.976;7.570;2023-06-19T16:13:12;28.60;1.00
19132;DHT22;9698;51.976;7.570;2023-06-19T16:15:41;28.60;1.00
19132;DHT22;9698;51.976;7.570;2023-06-19T16:18:09;28.60;1.00